Search for airport 
image banner adimage banner adimage banner ad
image banner ad

CA50 - Hughes/Malibu

Located in Malibu, United States

ICAO - CA50, IATA -

Data provided by Airmate  

General information

Coordinates: N34°2'43" W118°41'42"
Elevation is 455 feet MSL.
Magnetic variation is 14° East
View others Airports in California

Operational data

Special qualification required
Current time UTC:
Current local time:
Weather at : KSMO - Santa Monica Muni ( 23 km )
METAR: KSMO 150851Z AUTO 00000KT 10SM CLR 18/14 A2987 RMK AO2 SLP112 T01780139 58004
TAF: KSMO 150532Z 1506/1606 VRB03KT P6SM SKC FM152000 23010KT P6SM SKC FM160400 VRB03KT P6SM SKC
View NOTAMs / SUP AIP / TFR affecting this airport [VIEW]
Communications frequencies: [VIEW]

Runways:

Airport contact information

Address: Malibu United States

Satellite view of CA50